sensor_id;sensor_type;location;lat;lon;timestamp;P1;durP1;ratioP1;P2;durP2;ratioP2
54845;SDS011;53889;50.084;8.646;2023-05-29T00:00:57;5.80;;;2.50;;
54845;SDS011;53889;50.084;8.646;2023-05-29T00:03:24;5.07;;;2.85;;
54845;SDS011;53889;50.084;8.646;2023-05-29T00:05:51;6.03;;;2.92;;
54845;SDS011;53889;50.084;8.646;2023-05-29T00:08:18;3.97;;;2.50;;
54845;SDS011;53889;50.084;8.646;2023-05-29T00:10:46;5.97;;;2.50;;
54845;SDS011;53889;50.084;8.646;2023-05-29T00:13:12;5.65;;;2.60;;
54845;SDS011;53889;50.084;8.646;2023-05-29T00:15:39;4.45;;;2.50;;
54845;SDS011;53889;50.084;8.646;2023-05-29T00:18:06;6.82;;;2.88;;
54845;SDS011;53889;50.084;8.646;2023-05-29T00:20:33;5.85;;;2.67;;
54845;SDS011;53889;50.084;8.646;2023-05-29T00:23:01;6.50;;;2.83;;
54845;SDS011;53889;50.084;8.646;2023-05-29T00:25:29;3.78;;;2.22;;
54845;SDS011;53889;50.084;8.646;2023-05-29T00:27:57;7.43;;;2.95;;
54845;SDS011;53889;50.084;8.646;2023-05-29T00:30:24;5.53;;;2.60;;
54845;SDS011;53889;50.084;8.646;2023-05-29T00:32:51;6.70;;;2.63;;
54845;SDS011;53889;50.084;8.646;2023-05-29T00:35:19;5.65;;;2.70;;
54845;SDS011;53889;50.084;8.646;2023-05-29T00:37:46;6.68;;;3.08;;
54845;SDS011;53889;50.084;8.646;2023-05-29T00:40:12;5.32;;;2.70;;
54845;SDS011;53889;50.084;8.646;2023-05-29T00:42:39;6.80;;;3.22;;
54845;SDS011;53889;50.084;8.646;2023-05-29T00:45:08;5.07;;;2.83;;
54845;SDS011;53889;50.084;8.646;2023-05-29T00:47:35;5.28;;;2.70;;
54845;SDS011;53889;50.084;8.646;2023-05-29T00:50:03;4.95;;;2.50;;
54845;SDS011;53889;50.084;8.646;2023-05-29T00:52:30;6.97;;;2.80;;
54845;SDS011;53889;50.084;8.646;2023-05-29T00:54:57;4.40;;;2.60;;
54845;SDS011;53889;50.084;8.646;2023-05-29T00:57:26;4.72;;;2.72;;
54845;SDS011;53889;50.084;8.646;2023-05-29T00:59:53;6.28;;;2.70;;
54845;SDS011;53889;50.084;8.646;2023-05-29T01:02:23;6.03;;;2.85;;
54845;SDS011;53889;50.084;8.646;2023-05-29T01:04:49;5.32;;;2.88;;
54845;SDS011;53889;50.084;8.646;2023-05-29T01:07:19;5.90;;;2.90;;
54845;SDS011;53889;50.084;8.646;2023-05-29T01:09:46;4.82;;;2.65;;
54845;SDS011;53889;50.084;8.646;2023-05-29T01:15:04;6.88;;;2.63;;
54845;SDS011;53889;50.084;8.646;2023-05-29T01:18:00;5.72;;;2.75;;
54845;SDS011;53889;50.084;8.646;2023-05-29T01:20:50;6.60;;;2.83;;
54845;SDS011;53889;50.084;8.646;2023-05-29T01:23:25;5.63;;;2.80;;
54845;SDS011;53889;50.084;8.646;2023-05-29T01:26:19;5.43;;;2.95;;
54845;SDS011;53889;50.084;8.646;2023-05-29T01:28:52;6.45;;;2.88;;
54845;SDS011;53889;50.084;8.646;2023-05-29T01:31:25;9.40;;;2.95;;
54845;SDS011;53889;50.084;8.646;2023-05-29T01:33:53;6.50;;;2.95;;
54845;SDS011;53889;50.084;8.646;2023-05-29T01:36:20;5.15;;;2.80;;
54845;SDS011;53889;50.084;8.646;2023-05-29T01:38:48;5.32;;;2.63;;
54845;SDS011;53889;50.084;8.646;2023-05-29T01:41:16;4.55;;;2.42;;
54845;SDS011;53889;50.084;8.646;2023-05-29T01:43:44;5.82;;;2.70;;
54845;SDS011;53889;50.084;8.646;2023-05-29T01:46:13;5.72;;;2.60;;
54845;SDS011;53889;50.084;8.646;2023-05-29T01:48:41;5.05;;;2.47;;
54845;SDS011;53889;50.084;8.646;2023-05-29T01:51:09;5.20;;;2.83;;
54845;SDS011;53889;50.084;8.646;2023-05-29T01:53:37;5.93;;;2.65;;
54845;SDS011;53889;50.084;8.646;2023-05-29T01:56:04;3.85;;;2.38;;
54845;SDS011;53889;50.084;8.646;2023-05-29T01:58:31;5.18;;;2.40;;
54845;SDS011;53889;50.084;8.646;2023-05-29T02:00:59;4.47;;;2.60;;
54845;SDS011;53889;50.084;8.646;2023-05-29T02:03:30;5.72;;;2.40;;
54845;SDS011;53889;50.084;8.646;2023-05-29T02:05:56;5.25;;;2.38;;
54845;SDS011;53889;50.084;8.646;2023-05-29T02:08:24;5.90;;;2.60;;
54845;SDS011;53889;50.084;8.646;2023-05-29T02:10:51;6.00;;;3.00;;
54845;SDS011;53889;50.084;8.646;2023-05-29T02:13:18;4.70;;;2.58;;
54845;SDS011;53889;50.084;8.646;2023-05-29T02:15:45;6.43;;;2.85;;
54845;SDS011;53889;50.084;8.646;2023-05-29T02:18:13;5.50;;;2.80;;
54845;SDS011;53889;50.084;8.646;2023-05-29T02:20:45;6.32;;;2.67;;
54845;SDS011;53889;50.084;8.646;2023-05-29T02:23:19;5.82;;;2.50;;
54845;SDS011;53889;50.084;8.646;2023-05-29T02:25:46;6.75;;;2.85;;
54845;SDS011;53889;50.084;8.646;2023-05-29T02:28:13;5.55;;;2.63;;
54845;SDS011;53889;50.084;8.646;2023-05-29T02:30:40;4.65;;;2.40;;
54845;SDS011;53889;50.084;8.646;2023-05-29T02:33:08;5.03;;;2.53;;
54845;SDS011;53889;50.084;8.646;2023-05-29T02:35:34;5.53;;;2.70;;
54845;SDS011;53889;50.084;8.646;2023-05-29T02:38:04;5.60;;;2.60;;
54845;SDS011;53889;50.084;8.646;2023-05-29T02:40:31;5.13;;;2.78;;
54845;SDS011;53889;50.084;8.646;2023-05-29T02:42:57;5.68;;;2.60;;
54845;SDS011;53889;50.084;8.646;2023-05-29T02:45:24;6.47;;;2.80;;
54845;SDS011;53889;50.084;8.646;2023-05-29T02:47:52;5.68;;;2.80;;
54845;SDS011;53889;50.084;8.646;2023-05-29T02:50:19;4.28;;;2.35;;
54845;SDS011;53889;50.084;8.646;2023-05-29T02:52:46;5.30;;;2.50;;
54845;SDS011;53889;50.084;8.646;2023-05-29T02:55:14;5.63;;;2.53;;
54845;SDS011;53889;50.084;8.646;2023-05-29T02:57:41;5.97;;;2.50;;
54845;SDS011;53889;50.084;8.646;2023-05-29T03:00:07;6.47;;;2.90;;
54845;SDS011;53889;50.084;8.646;2023-05-29T03:02:36;5.65;;;2.85;;
54845;SDS011;53889;50.084;8.646;2023-05-29T03:05:02;7.18;;;2.95;;
54845;SDS011;53889;50.084;8.646;2023-05-29T03:07:29;6.57;;;2.90;;
54845;SDS011;53889;50.084;8.646;2023-05-29T03:09:56;4.75;;;2.50;;
54845;SDS011;53889;50.084;8.646;2023-05-29T03:12:24;6.30;;;2.90;;
54845;SDS011;53889;50.084;8.646;2023-05-29T03:14:53;7.55;;;3.13;;
54845;SDS011;53889;50.084;8.646;2023-05-29T03:17:21;4.90;;;2.65;;
54845;SDS011;53889;50.084;8.646;2023-05-29T03:19:48;8.85;;;3.15;;
54845;SDS011;53889;50.084;8.646;2023-05-29T03:22:16;6.85;;;3.15;;
54845;SDS011;53889;50.084;8.646;2023-05-29T03:24:42;8.38;;;3.08;;
54845;SDS011;53889;50.084;8.646;2023-05-29T03:27:09;5.97;;;2.85;;
54845;SDS011;53889;50.084;8.646;2023-05-29T03:29:37;7.47;;;3.20;;
54845;SDS011;53889;50.084;8.646;2023-05-29T03:32:05;7.25;;;3.20;;
54845;SDS011;53889;50.084;8.646;2023-05-29T03:34:33;7.55;;;3.47;;
54845;SDS011;53889;50.084;8.646;2023-05-29T03:37:02;7.45;;;3.08;;
54845;SDS011;53889;50.084;8.646;2023-05-29T03:39:29;8.23;;;3.40;;
54845;SDS011;53889;50.084;8.646;2023-05-29T03:41:57;8.10;;;3.13;;
54845;SDS011;53889;50.084;8.646;2023-05-29T03:44:24;7.57;;;3.50;;
54845;SDS011;53889;50.084;8.646;2023-05-29T03:46:52;9.52;;;3.50;;
54845;SDS011;53889;50.084;8.646;2023-05-29T03:49:19;7.65;;;3.58;;
54845;SDS011;53889;50.084;8.646;2023-05-29T03:51:45;8.80;;;3.28;;
54845;SDS011;53889;50.084;8.646;2023-05-29T03:54:13;6.38;;;3.10;;
54845;SDS011;53889;50.084;8.646;2023-05-29T03:56:41;7.97;;;3.47;;
54845;SDS011;53889;50.084;8.646;2023-05-29T03:59:10;6.35;;;3.30;;
54845;SDS011;53889;50.084;8.646;2023-05-29T04:01:37;6.63;;;3.45;;
54845;SDS011;53889;50.084;8.646;2023-05-29T04:04:05;7.25;;;3.53;;
54845;SDS011;53889;50.084;8.646;2023-05-29T04:06:31;8.15;;;3.38;;
54845;SDS011;53889;50.084;8.646;2023-05-29T04:08:58;6.72;;;3.50;;
54845;SDS011;53889;50.084;8.646;2023-05-29T04:11:27;7.28;;;3.10;;
54845;SDS011;53889;50.084;8.646;2023-05-29T04:13:54;8.85;;;3.47;;
54845;SDS011;53889;50.084;8.646;2023-05-29T04:16:21;10.48;;;3.60;;
54845;SDS011;53889;50.084;8.646;2023-05-29T04:18:48;10.50;;;3.63;;
54845;SDS011;53889;50.084;8.646;2023-05-29T04:21:16;8.13;;;3.42;;
54845;SDS011;53889;50.084;8.646;2023-05-29T04:23:43;10.95;;;3.78;;
54845;SDS011;53889;50.084;8.646;2023-05-29T04:26:09;7.75;;;3.65;;
54845;SDS011;53889;50.084;8.646;2023-05-29T04:28:37;6.82;;;3.65;;
54845;SDS011;53889;50.084;8.646;2023-05-29T04:31:05;6.18;;;3.22;;
54845;SDS011;53889;50.084;8.646;2023-05-29T04:33:34;9.90;;;3.75;;
54845;SDS011;53889;50.084;8.646;2023-05-29T04:36:02;5.25;;;3.00;;
54845;SDS011;53889;50.084;8.646;2023-05-29T04:38:32;7.45;;;3.33;;
54845;SDS011;53889;50.084;8.646;2023-05-29T04:41:02;6.07;;;3.15;;
54845;SDS011;53889;50.084;8.646;2023-05-29T04:43:28;6.03;;;3.30;;
54845;SDS011;53889;50.084;8.646;2023-05-29T04:46:00;8.77;;;4.68;;
54845;SDS011;53889;50.084;8.646;2023-05-29T04:48:28;10.93;;;3.63;;
54845;SDS011;53889;50.084;8.646;2023-05-29T04:50:56;7.05;;;3.28;;
54845;SDS011;53889;50.084;8.646;2023-05-29T04:53:24;7.15;;;3.50;;
54845;SDS011;53889;50.084;8.646;2023-05-29T04:55:53;7.25;;;3.30;;
54845;SDS011;53889;50.084;8.646;2023-05-29T04:58:20;6.30;;;3.47;;
54845;SDS011;53889;50.084;8.646;2023-05-29T05:00:50;7.05;;;3.33;;
54845;SDS011;53889;50.084;8.646;2023-05-29T05:03:17;12.45;;;3.45;;
54845;SDS011;53889;50.084;8.646;2023-05-29T05:05:44;8.10;;;3.30;;
54845;SDS011;53889;50.084;8.646;2023-05-29T05:08:13;6.70;;;3.47;;
54845;SDS011;53889;50.084;8.646;2023-05-29T05:10:40;10.30;;;3.80;;
54845;SDS011;53889;50.084;8.646;2023-05-29T05:13:08;8.93;;;3.50;;
54845;SDS011;53889;50.084;8.646;2023-05-29T05:15:36;7.28;;;3.10;;
54845;SDS011;53889;50.084;8.646;2023-05-29T05:18:03;5.85;;;3.55;;
54845;SDS011;53889;50.084;8.646;2023-05-29T05:20:32;7.53;;;3.10;;
54845;SDS011;53889;50.084;8.646;2023-05-29T05:22:59;6.75;;;3.50;;
54845;SDS011;53889;50.084;8.646;2023-05-29T05:25:26;6.97;;;3.00;;
54845;SDS011;53889;50.084;8.646;2023-05-29T05:27:52;6.85;;;3.00;;
54845;SDS011;53889;50.084;8.646;2023-05-29T05:30:22;6.85;;;3.42;;
54845;SDS011;53889;50.084;8.646;2023-05-29T05:32:49;7.20;;;3.05;;
54845;SDS011;53889;50.084;8.646;2023-05-29T05:35:15;6.15;;;3.03;;
54845;SDS011;53889;50.084;8.646;2023-05-29T05:37:44;6.70;;;3.10;;
54845;SDS011;53889;50.084;8.646;2023-05-29T05:40:11;6.30;;;3.30;;
54845;SDS011;53889;50.084;8.646;2023-05-29T05:42:49;5.05;;;2.90;;
54845;SDS011;53889;50.084;8.646;2023-05-29T05:45:17;6.03;;;2.90;;
54845;SDS011;53889;50.084;8.646;2023-05-29T05:47:45;7.72;;;3.25;;
54845;SDS011;53889;50.084;8.646;2023-05-29T05:50:13;5.32;;;3.00;;
54845;SDS011;53889;50.084;8.646;2023-05-29T05:52:41;6.60;;;3.00;;
54845;SDS011;53889;50.084;8.646;2023-05-29T05:55:09;6.38;;;2.90;;
54845;SDS011;53889;50.084;8.646;2023-05-29T05:57:37;5.88;;;3.00;;
54845;SDS011;53889;50.084;8.646;2023-05-29T06:00:04;6.43;;;3.13;;
54845;SDS011;53889;50.084;8.646;2023-05-29T06:02:41;4.93;;;2.80;;
54845;SDS011;53889;50.084;8.646;2023-05-29T06:05:13;6.60;;;3.22;;
54845;SDS011;53889;50.084;8.646;2023-05-29T06:07:40;5.65;;;2.88;;
54845;SDS011;53889;50.084;8.646;2023-05-29T06:10:07;5.85;;;2.70;;
54845;SDS011;53889;50.084;8.646;2023-05-29T06:12:34;5.97;;;2.65;;
54845;SDS011;53889;50.084;8.646;2023-05-29T06:15:11;7.13;;;2.83;;
54845;SDS011;53889;50.084;8.646;2023-05-29T06:17:38;5.20;;;2.67;;
54845;SDS011;53889;50.084;8.646;2023-05-29T06:20:05;5.10;;;2.45;;
54845;SDS011;53889;50.084;8.646;2023-05-29T06:22:36;4.82;;;2.60;;
54845;SDS011;53889;50.084;8.646;2023-05-29T06:25:04;4.47;;;2.50;;
54845;SDS011;53889;50.084;8.646;2023-05-29T06:27:31;5.15;;;2.70;;
54845;SDS011;53889;50.084;8.646;2023-05-29T06:29:58;5.75;;;2.80;;
54845;SDS011;53889;50.084;8.646;2023-05-29T06:32:24;6.40;;;2.63;;
54845;SDS011;53889;50.084;8.646;2023-05-29T06:34:54;5.50;;;2.70;;
54845;SDS011;53889;50.084;8.646;2023-05-29T06:37:21;5.07;;;2.53;;
54845;SDS011;53889;50.084;8.646;2023-05-29T06:39:49;5.70;;;2.40;;
54845;SDS011;53889;50.084;8.646;2023-05-29T06:42:16;5.55;;;2.72;;
54845;SDS011;53889;50.084;8.646;2023-05-29T06:44:43;5.53;;;2.50;;
54845;SDS011;53889;50.084;8.646;2023-05-29T06:47:10;5.07;;;2.45;;
54845;SDS011;53889;50.084;8.646;2023-05-29T06:49:37;5.20;;;2.53;;
54845;SDS011;53889;50.084;8.646;2023-05-29T06:52:03;5.38;;;2.45;;
54845;SDS011;53889;50.084;8.646;2023-05-29T06:54:52;7.15;;;2.78;;
54845;SDS011;53889;50.084;8.646;2023-05-29T06:57:19;5.65;;;2.30;;
54845;SDS011;53889;50.084;8.646;2023-05-29T06:59:46;5.75;;;2.53;;
54845;SDS011;53889;50.084;8.646;2023-05-29T07:02:12;6.07;;;3.03;;
54845;SDS011;53889;50.084;8.646;2023-05-29T07:04:39;5.95;;;2.50;;
54845;SDS011;53889;50.084;8.646;2023-05-29T07:07:06;4.57;;;2.50;;
54845;SDS011;53889;50.084;8.646;2023-05-29T07:09:34;4.65;;;2.35;;
54845;SDS011;53889;50.084;8.646;2023-05-29T07:12:03;5.90;;;2.78;;
54845;SDS011;53889;50.084;8.646;2023-05-29T07:14:30;5.03;;;2.50;;
54845;SDS011;53889;50.084;8.646;2023-05-29T07:16:57;5.88;;;2.50;;
54845;SDS011;53889;50.084;8.646;2023-05-29T07:19:24;4.63;;;2.60;;
54845;SDS011;53889;50.084;8.646;2023-05-29T07:21:51;4.20;;;2.22;;
54845;SDS011;53889;50.084;8.646;2023-05-29T07:24:20;5.63;;;2.60;;
54845;SDS011;53889;50.084;8.646;2023-05-29T07:26:46;4.82;;;2.50;;
54845;SDS011;53889;50.084;8.646;2023-05-29T07:29:15;6.30;;;2.72;;
54845;SDS011;53889;50.084;8.646;2023-05-29T07:31:43;4.82;;;2.40;;
54845;SDS011;53889;50.084;8.646;2023-05-29T07:34:10;7.00;;;2.72;;
54845;SDS011;53889;50.084;8.646;2023-05-29T07:36:44;4.63;;;2.45;;
54845;SDS011;53889;50.084;8.646;2023-05-29T07:41:49;5.88;;;2.40;;
54845;SDS011;53889;50.084;8.646;2023-05-29T07:44:17;5.05;;;2.72;;
54845;SDS011;53889;50.084;8.646;2023-05-29T07:46:44;4.97;;;2.50;;
54845;SDS011;53889;50.084;8.646;2023-05-29T07:49:37;4.38;;;2.38;;
54845;SDS011;53889;50.084;8.646;2023-05-29T07:52:05;5.25;;;2.65;;
54845;SDS011;53889;50.084;8.646;2023-05-29T07:54:32;4.20;;;2.53;;
54845;SDS011;53889;50.084;8.646;2023-05-29T07:57:00;3.90;;;2.17;;
54845;SDS011;53889;50.084;8.646;2023-05-29T07:59:30;4.97;;;2.58;;
54845;SDS011;53889;50.084;8.646;2023-05-29T08:01:59;5.80;;;2.42;;
54845;SDS011;53889;50.084;8.646;2023-05-29T08:04:48;4.07;;;2.40;;
54845;SDS011;53889;50.084;8.646;2023-05-29T08:07:15;5.75;;;2.45;;
54845;SDS011;53889;50.084;8.646;2023-05-29T08:09:42;4.20;;;2.40;;
54845;SDS011;53889;50.084;8.646;2023-05-29T08:12:09;6.20;;;2.42;;
54845;SDS011;53889;50.084;8.646;2023-05-29T08:14:37;5.70;;;2.50;;
54845;SDS011;53889;50.084;8.646;2023-05-29T08:17:04;7.10;;;2.33;;
54845;SDS011;53889;50.084;8.646;2023-05-29T08:19:31;4.72;;;2.42;;
54845;SDS011;53889;50.084;8.646;2023-05-29T08:21:58;4.97;;;2.17;;
54845;SDS011;53889;50.084;8.646;2023-05-29T08:24:24;4.88;;;2.30;;
54845;SDS011;53889;50.084;8.646;2023-05-29T08:26:52;3.92;;;2.17;;
54845;SDS011;53889;50.084;8.646;2023-05-29T08:29:19;4.65;;;2.40;;
54845;SDS011;53889;50.084;8.646;2023-05-29T08:31:48;4.30;;;2.53;;
54845;SDS011;53889;50.084;8.646;2023-05-29T08:34:15;5.75;;;2.45;;
54845;SDS011;53889;50.084;8.646;2023-05-29T08:36:42;4.57;;;2.20;;
54845;SDS011;53889;50.084;8.646;2023-05-29T08:39:10;9.23;;;2.30;;
54845;SDS011;53889;50.084;8.646;2023-05-29T08:41:38;5.70;;;2.50;;
54845;SDS011;53889;50.084;8.646;2023-05-29T08:44:13;4.60;;;2.33;;
54845;SDS011;53889;50.084;8.646;2023-05-29T08:46:40;4.85;;;2.35;;
54845;SDS011;53889;50.084;8.646;2023-05-29T08:49:09;7.60;;;2.58;;
54845;SDS011;53889;50.084;8.646;2023-05-29T08:51:40;4.72;;;2.22;;
54845;SDS011;53889;50.084;8.646;2023-05-29T08:54:10;5.15;;;2.58;;
54845;SDS011;53889;50.084;8.646;2023-05-29T08:56:37;5.63;;;2.30;;
54845;SDS011;53889;50.084;8.646;2023-05-29T08:59:04;6.13;;;2.20;;
54845;SDS011;53889;50.084;8.646;2023-05-29T09:01:33;3.97;;;2.00;;
54845;SDS011;53889;50.084;8.646;2023-05-29T09:04:01;3.83;;;1.95;;
54845;SDS011;53889;50.084;8.646;2023-05-29T09:06:29;4.57;;;2.03;;
54845;SDS011;53889;50.084;8.646;2023-05-29T09:08:56;4.13;;;2.22;;
54845;SDS011;53889;50.084;8.646;2023-05-29T09:11:23;3.78;;;1.70;;
54845;SDS011;53889;50.084;8.646;2023-05-29T09:13:51;5.25;;;2.03;;
54845;SDS011;53889;50.084;8.646;2023-05-29T09:16:18;5.30;;;2.30;;
54845;SDS011;53889;50.084;8.646;2023-05-29T09:18:45;5.35;;;2.13;;
54845;SDS011;53889;50.084;8.646;2023-05-29T09:21:17;3.03;;;1.92;;
54845;SDS011;53889;50.084;8.646;2023-05-29T09:23:53;4.05;;;2.03;;
54845;SDS011;53889;50.084;8.646;2023-05-29T09:26:21;5.38;;;2.13;;
54845;SDS011;53889;50.084;8.646;2023-05-29T09:28:48;3.75;;;1.90;;
54845;SDS011;53889;50.084;8.646;2023-05-29T09:31:15;3.88;;;1.92;;
54845;SDS011;53889;50.084;8.646;2023-05-29T09:33:46;4.45;;;2.30;;
54845;SDS011;53889;50.084;8.646;2023-05-29T09:36:19;5.55;;;2.20;;
54845;SDS011;53889;50.084;8.646;2023-05-29T09:38:47;6.03;;;2.20;;
54845;SDS011;53889;50.084;8.646;2023-05-29T09:41:15;5.63;;;2.38;;
54845;SDS011;53889;50.084;8.646;2023-05-29T09:43:47;3.67;;;2.20;;
54845;SDS011;53889;50.084;8.646;2023-05-29T09:46:14;14.63;;;2.58;;
54845;SDS011;53889;50.084;8.646;2023-05-29T09:48:42;3.70;;;2.08;;
54845;SDS011;53889;50.084;8.646;2023-05-29T09:51:18;4.25;;;2.10;;
54845;SDS011;53889;50.084;8.646;2023-05-29T09:53:45;5.68;;;2.20;;
54845;SDS011;53889;50.084;8.646;2023-05-29T09:56:12;3.85;;;2.15;;
54845;SDS011;53889;50.084;8.646;2023-05-29T09:58:42;4.32;;;2.17;;
54845;SDS011;53889;50.084;8.646;2023-05-29T10:01:11;3.90;;;2.17;;
54845;SDS011;53889;50.084;8.646;2023-05-29T10:03:38;6.38;;;2.25;;
54845;SDS011;53889;50.084;8.646;2023-05-29T10:06:06;3.58;;;2.13;;
54845;SDS011;53889;50.084;8.646;2023-05-29T10:08:34;7.03;;;2.25;;
54845;SDS011;53889;50.084;8.646;2023-05-29T10:11:03;4.55;;;2.30;;
54845;SDS011;53889;50.084;8.646;2023-05-29T10:13:36;4.50;;;1.70;;
54845;SDS011;53889;50.084;8.646;2023-05-29T10:16:06;6.45;;;2.03;;
54845;SDS011;53889;50.084;8.646;2023-05-29T10:18:37;3.25;;;1.77;;
54845;SDS011;53889;50.084;8.646;2023-05-29T10:21:04;3.58;;;1.92;;
54845;SDS011;53889;50.084;8.646;2023-05-29T10:23:34;3.95;;;1.95;;
54845;SDS011;53889;50.084;8.646;2023-05-29T10:26:06;4.45;;;2.28;;
54845;SDS011;53889;50.084;8.646;2023-05-29T10:28:39;6.32;;;2.00;;
54845;SDS011;53889;50.084;8.646;2023-05-29T10:31:09;3.97;;;1.90;;
54845;SDS011;53889;50.084;8.646;2023-05-29T10:33:48;4.00;;;2.00;;
54845;SDS011;53889;50.084;8.646;2023-05-29T10:36:26;4.00;;;1.80;;
54845;SDS011;53889;50.084;8.646;2023-05-29T10:38:57;5.50;;;1.88;;
54845;SDS011;53889;50.084;8.646;2023-05-29T10:41:30;4.53;;;2.22;;
54845;SDS011;53889;50.084;8.646;2023-05-29T10:44:37;4.00;;;1.70;;
54845;SDS011;53889;50.084;8.646;2023-05-29T10:47:06;4.65;;;2.10;;
54845;SDS011;53889;50.084;8.646;2023-05-29T10:49:33;3.55;;;2.00;;
54845;SDS011;53889;50.084;8.646;2023-05-29T10:52:00;5.38;;;2.45;;
54845;SDS011;53889;50.084;8.646;2023-05-29T10:54:39;3.92;;;2.10;;
54845;SDS011;53889;50.084;8.646;2023-05-29T10:57:16;4.35;;;1.95;;
54845;SDS011;53889;50.084;8.646;2023-05-29T10:59:45;4.38;;;2.33;;
54845;SDS011;53889;50.084;8.646;2023-05-29T11:02:16;3.63;;;1.98;;
54845;SDS011;53889;50.084;8.646;2023-05-29T11:04:44;3.28;;;1.90;;
54845;SDS011;53889;50.084;8.646;2023-05-29T11:07:33;5.38;;;2.22;;
54845;SDS011;53889;50.084;8.646;2023-05-29T11:10:10;3.85;;;2.25;;
54845;SDS011;53889;50.084;8.646;2023-05-29T11:12:41;5.75;;;2.80;;
54845;SDS011;53889;50.084;8.646;2023-05-29T11:17:50;4.95;;;2.05;;
54845;SDS011;53889;50.084;8.646;2023-05-29T11:20:26;4.40;;;2.17;;
54845;SDS011;53889;50.084;8.646;2023-05-29T11:23:00;4.05;;;1.77;;
54845;SDS011;53889;50.084;8.646;2023-05-29T11:25:32;3.85;;;2.10;;
54845;SDS011;53889;50.084;8.646;2023-05-29T11:28:00;5.18;;;2.10;;
54845;SDS011;53889;50.084;8.646;2023-05-29T11:30:30;3.92;;;2.00;;
54845;SDS011;53889;50.084;8.646;2023-05-29T11:32:57;4.78;;;2.00;;
54845;SDS011;53889;50.084;8.646;2023-05-29T11:35:27;4.75;;;2.17;;
54845;SDS011;53889;50.084;8.646;2023-05-29T11:37:56;13.32;;;2.20;;
54845;SDS011;53889;50.084;8.646;2023-05-29T11:40:23;3.30;;;1.90;;
54845;SDS011;53889;50.084;8.646;2023-05-29T11:42:50;3.50;;;2.00;;
54845;SDS011;53889;50.084;8.646;2023-05-29T11:45:18;4.35;;;2.00;;
54845;SDS011;53889;50.084;8.646;2023-05-29T11:47:51;4.85;;;3.30;;
54845;SDS011;53889;50.084;8.646;2023-05-29T11:50:22;3.15;;;1.90;;
54845;SDS011;53889;50.084;8.646;2023-05-29T11:52:49;5.10;;;1.98;;
54845;SDS011;53889;50.084;8.646;2023-05-29T11:55:17;4.20;;;1.90;;
54845;SDS011;53889;50.084;8.646;2023-05-29T11:57:44;3.70;;;1.73;;
54845;SDS011;53889;50.084;8.646;2023-05-29T12:00:12;5.88;;;2.30;;
54845;SDS011;53889;50.084;8.646;2023-05-29T12:02:40;4.65;;;1.98;;
54845;SDS011;53889;50.084;8.646;2023-05-29T12:05:10;3.65;;;2.00;;
54845;SDS011;53889;50.084;8.646;2023-05-29T12:07:46;4.20;;;1.80;;
54845;SDS011;53889;50.084;8.646;2023-05-29T12:10:14;3.28;;;2.10;;
54845;SDS011;53889;50.084;8.646;2023-05-29T12:12:42;3.67;;;1.88;;
54845;SDS011;53889;50.084;8.646;2023-05-29T12:15:13;3.40;;;1.83;;
54845;SDS011;53889;50.084;8.646;2023-05-29T12:17:40;4.03;;;2.25;;
54845;SDS011;53889;50.084;8.646;2023-05-29T12:20:09;4.05;;;1.98;;
54845;SDS011;53889;50.084;8.646;2023-05-29T12:22:38;3.53;;;1.85;;
54845;SDS011;53889;50.084;8.646;2023-05-29T12:25:07;4.18;;;1.90;;
54845;SDS011;53889;50.084;8.646;2023-05-29T12:27:35;3.95;;;2.00;;
54845;SDS011;53889;50.084;8.646;2023-05-29T12:30:07;3.63;;;1.80;;
54845;SDS011;53889;50.084;8.646;2023-05-29T12:32:35;3.15;;;1.80;;
54845;SDS011;53889;50.084;8.646;2023-05-29T12:35:11;4.28;;;2.10;;
54845;SDS011;53889;50.084;8.646;2023-05-29T12:37:43;3.97;;;1.67;;
54845;SDS011;53889;50.084;8.646;2023-05-29T12:40:14;3.58;;;1.90;;
54845;SDS011;53889;50.084;8.646;2023-05-29T12:42:42;4.03;;;2.20;;
54845;SDS011;53889;50.084;8.646;2023-05-29T12:45:09;3.78;;;2.25;;
54845;SDS011;53889;50.084;8.646;2023-05-29T12:47:36;4.18;;;1.77;;
54845;SDS011;53889;50.084;8.646;2023-05-29T12:50:20;8.88;;;2.20;;
54845;SDS011;53889;50.084;8.646;2023-05-29T12:52:55;6.50;;;2.47;;
54845;SDS011;53889;50.084;8.646;2023-05-29T12:55:23;4.82;;;2.10;;
54845;SDS011;53889;50.084;8.646;2023-05-29T12:57:50;5.20;;;2.10;;
54845;SDS011;53889;50.084;8.646;2023-05-29T13:00:17;3.70;;;2.13;;
54845;SDS011;53889;50.084;8.646;2023-05-29T13:02:45;3.28;;;1.98;;
54845;SDS011;53889;50.084;8.646;2023-05-29T13:05:12;4.65;;;2.45;;
54845;SDS011;53889;50.084;8.646;2023-05-29T13:07:42;3.38;;;2.10;;
54845;SDS011;53889;50.084;8.646;2023-05-29T13:10:09;5.13;;;1.92;;
54845;SDS011;53889;50.084;8.646;2023-05-29T13:12:36;3.05;;;1.92;;
54845;SDS011;53889;50.084;8.646;2023-05-29T13:15:03;4.53;;;2.10;;
54845;SDS011;53889;50.084;8.646;2023-05-29T13:17:30;5.50;;;2.20;;
54845;SDS011;53889;50.084;8.646;2023-05-29T13:19:57;4.45;;;2.40;;
54845;SDS011;53889;50.084;8.646;2023-05-29T13:22:24;4.20;;;2.33;;
54845;SDS011;53889;50.084;8.646;2023-05-29T13:24:57;6.18;;;2.40;;
54845;SDS011;53889;50.084;8.646;2023-05-29T13:27:24;5.47;;;2.65;;
54845;SDS011;53889;50.084;8.646;2023-05-29T13:29:51;7.93;;;2.40;;
54845;SDS011;53889;50.084;8.646;2023-05-29T13:32:18;6.10;;;2.80;;
54845;SDS011;53889;50.084;8.646;2023-05-29T13:34:45;4.38;;;2.53;;
54845;SDS011;53889;50.084;8.646;2023-05-29T13:37:11;5.10;;;2.25;;
54845;SDS011;53889;50.084;8.646;2023-05-29T13:39:38;6.90;;;2.55;;
54845;SDS011;53889;50.084;8.646;2023-05-29T13:42:07;3.83;;;2.47;;
54845;SDS011;53889;50.084;8.646;2023-05-29T13:44:34;4.43;;;2.60;;
54845;SDS011;53889;50.084;8.646;2023-05-29T13:47:01;5.22;;;2.40;;
54845;SDS011;53889;50.084;8.646;2023-05-29T13:49:28;8.10;;;2.53;;
54845;SDS011;53889;50.084;8.646;2023-05-29T13:51:54;5.07;;;2.65;;
54845;SDS011;53889;50.084;8.646;2023-05-29T13:54:21;4.85;;;2.70;;
54845;SDS011;53889;50.084;8.646;2023-05-29T13:56:48;5.65;;;2.67;;
54845;SDS011;53889;50.084;8.646;2023-05-29T13:59:16;6.53;;;2.45;;
54845;SDS011;53889;50.084;8.646;2023-05-29T14:01:43;5.20;;;2.60;;
54845;SDS011;53889;50.084;8.646;2023-05-29T14:04:10;6.25;;;2.60;;
54845;SDS011;53889;50.084;8.646;2023-05-29T14:06:37;6.43;;;2.40;;
54845;SDS011;53889;50.084;8.646;2023-05-29T14:09:04;7.57;;;2.50;;
54845;SDS011;53889;50.084;8.646;2023-05-29T14:11:34;5.05;;;2.20;;
54845;SDS011;53889;50.084;8.646;2023-05-29T14:14:02;6.15;;;2.72;;
54845;SDS011;53889;50.084;8.646;2023-05-29T14:16:30;5.80;;;2.60;;
54845;SDS011;53889;50.084;8.646;2023-05-29T14:18:57;6.00;;;2.72;;
54845;SDS011;53889;50.084;8.646;2023-05-29T14:21:23;5.68;;;2.42;;
54845;SDS011;53889;50.084;8.646;2023-05-29T14:23:50;3.97;;;2.30;;
54845;SDS011;53889;50.084;8.646;2023-05-29T14:26:17;4.70;;;2.45;;
54845;SDS011;53889;50.084;8.646;2023-05-29T14:28:44;6.07;;;2.83;;
54845;SDS011;53889;50.084;8.646;2023-05-29T14:31:11;5.13;;;2.75;;
54845;SDS011;53889;50.084;8.646;2023-05-29T14:33:39;5.82;;;2.80;;
54845;SDS011;53889;50.084;8.646;2023-05-29T14:36:06;5.65;;;2.63;;
54845;SDS011;53889;50.084;8.646;2023-05-29T14:38:33;4.65;;;2.60;;
54845;SDS011;53889;50.084;8.646;2023-05-29T14:41:01;5.78;;;2.55;;
54845;SDS011;53889;50.084;8.646;2023-05-29T14:43:27;4.75;;;2.30;;
54845;SDS011;53889;50.084;8.646;2023-05-29T14:45:54;5.57;;;2.40;;
54845;SDS011;53889;50.084;8.646;2023-05-29T14:48:21;4.82;;;2.70;;
54845;SDS011;53889;50.084;8.646;2023-05-29T14:50:49;6.30;;;2.75;;
54845;SDS011;53889;50.084;8.646;2023-05-29T14:53:16;5.63;;;2.58;;
54845;SDS011;53889;50.084;8.646;2023-05-29T14:55:42;4.78;;;2.45;;
54845;SDS011;53889;50.084;8.646;2023-05-29T14:58:09;5.35;;;2.70;;
54845;SDS011;53889;50.084;8.646;2023-05-29T15:00:37;7.90;;;2.60;;
54845;SDS011;53889;50.084;8.646;2023-05-29T15:03:04;6.05;;;2.72;;
54845;SDS011;53889;50.084;8.646;2023-05-29T15:05:30;6.13;;;2.83;;